^^
Your Local Weather - Clay, NY Station Historical Data
Daily Summary for January 17, 2018 Units:  Both    English   Metric
« Previous Day
Next Day »
Daily Weekly Monthly Yearly Custom
  High: Low: Average:
Temperature: 23.7 °F /  -4.6 °C 1.6 °F /  -16.9 °C 15.9 °F /  -8.9 °C
Dew Point: 22.0 °F /  -5.6 °C -1.6 °F /  -18.7 °C 13 °F /  -10.6 °C
Humidity: 93% 84% 88%
Wind Speed: 4.0mph /  6.4km/h - 1.6mph /  2.6km/h
Wind Gust: 9.0mph /  14.5km/h - -
Wind- - WSW
Pressure: 30.39 in /  1029 hPa 30.13 in /  1020.2 hPa -
Precipitation: 0.00 in /  0 mm    
Historical Graphs
 
 
Tabular Data for January 17, 2018
Time Temperature Dew Point Pressure Wind Wind Speed Wind Gust Humidity Rainfall Rate (Hourly) solar
00:00 21.4 °F /  -5.9 °C 19.7 °F /  -6.8 °C 30.34in /  1027.3hPa Calm     93% 0.00in /  0mm 0 W/m2
00:05 21.4 °F /  -5.9 °C 19.7 °F /  -6.8 °C 30.33in /  1027hPa Calm     93% 0.00in /  0mm 0 W/m2
00:18 21.3 °F /  -5.9 °C 19.6 °F /  -6.9 °C 30.33in /  1027hPa Calm     93% 0.00in /  0mm 0 W/m2
00:24 21.2 °F /  -6 °C 19.5 °F /  -6.9 °C 30.33in /  1027hPa Calm     93% 0.00in /  0mm 0 W/m2
00:32 21.3 °F /  -5.9 °C 19.6 °F /  -6.9 °C 30.33in /  1027hPa Calm     93% 0.00in /  0mm 0 W/m2
00:38 21.3 °F /  -5.9 °C 19.6 °F /  -6.9 °C 30.33in /  1027hPa Calm     93% 0.00in /  0mm 0 W/m2
00:44 21.2 °F /  -6 °C 19.5 °F /  -6.9 °C 30.33in /  1027hPa Calm     93% 0.00in /  0mm 0 W/m2
00:49 21.2 °F /  -6 °C 19.5 °F /  -6.9 °C 30.33in /  1027hPa Calm     93% 0.00in /  0mm 0 W/m2
00:56 21.2 °F /  -6 °C 19.5 °F /  -6.9 °C 30.33in /  1027hPa Calm     93% 0.00in /  0mm 0 W/m2
01:02 21.1 °F /  -6.1 °C 19.4 °F /  -7 °C 30.32in /  1026.6hPa Calm     93% 0.00in /  0mm 0 W/m2
01:08 21.1 °F /  -6.1 °C 19.4 °F /  -7 °C 30.32in /  1026.6hPa Calm     93% 0.00in /  0mm 0 W/m2
01:14 21.1 °F /  -6.1 °C 19.4 °F /  -7 °C 30.33in /  1027hPa Calm     93% 0.00in /  0mm 0 W/m2
01:19 21.2 °F /  -6 °C 19.5 °F /  -6.9 °C 30.32in /  1026.6hPa Calm     93% 0.00in /  0mm 0 W/m2
01:26 21.5 °F /  -5.8 °C 19.5 °F /  -6.9 °C 30.32in /  1026.6hPa Calm     92% 0.00in /  0mm 0 W/m2
01:34 21.8 °F /  -5.7 °C 20.1 °F /  -6.6 °C 30.32in /  1026.6hPa Calm     93% 0.00in /  0mm 0 W/m2
01:40 22.0 °F /  -5.6 °C 20.3 °F /  -6.5 °C 30.32in /  1026.6hPa Calm     93% 0.00in /  0mm 0 W/m2
01:46 22.0 °F /  -5.6 °C 20.3 °F /  -6.5 °C 30.32in /  1026.6hPa Calm     93% 0.00in /  0mm 0 W/m2
01:52 22.0 °F /  -5.6 °C 20.3 °F /  -6.5 °C 30.32in /  1026.6hPa Calm     93% 0.00in /  0mm 0 W/m2
01:58 21.9 °F /  -5.6 °C 20.2 °F /  -6.6 °C 30.32in /  1026.6hPa Calm     93% 0.00in /  0mm 0 W/m2
02:03 21.9 °F /  -5.6 °C 20.2 °F /  -6.6 °C 30.32in /  1026.6hPa Calm     93% 0.00in /  0mm 0 W/m2
02:10 21.9 °F /  -5.6 °C 20.2 °F /  -6.6 °C 30.32in /  1026.6hPa Calm     93% 0.00in /  0mm 0 W/m2
02:16 22.0 °F /  -5.6 °C 20.3 °F /  -6.5 °C 30.32in /  1026.6hPa Calm     93% 0.00in /  0mm 0 W/m2
02:22 22.1 °F /  -5.5 °C 20.4 °F /  -6.4 °C 30.32in /  1026.6hPa Calm     93% 0.00in /  0mm 0 W/m2
02:28 22.2 °F /  -5.4 °C 20.5 °F /  -6.4 °C 30.32in /  1026.6hPa Calm     93% 0.00in /  0mm 0 W/m2
02:34 22.3 °F /  -5.4 °C 20.6 °F /  -6.3 °C 30.32in /  1026.6hPa Calm     93% 0.00in /  0mm 0 W/m2
02:40 22.3 °F /  -5.4 °C 20.6 °F /  -6.3 °C 30.32in /  1026.6hPa Calm     93% 0.00in /  0mm 0 W/m2
02:45 22.7 °F /  -5.2 °C 21.0 °F /  -6.1 °C 30.33in /  1027hPa Calm   2.0mph /  3.2km/h 93% 0.00in /  0mm 0 W/m2
02:52 23.1 °F /  -4.9 °C 21.4 °F /  -5.9 °C 30.33in /  1027hPa WSW 1.0mph /  1.6km/h 2.0mph /  3.2km/h 93% 0.00in /  0mm 0 W/m2
03:00 23.4 °F /  -4.8 °C 21.7 °F /  -5.7 °C 30.33in /  1027hPa WSW 1.0mph /  1.6km/h 1.0mph /  1.6km/h 93% 0.00in /  0mm 0 W/m2
03:05 23.5 °F /  -4.7 °C 21.8 °F /  -5.7 °C 30.33in /  1027hPa WSW 1.0mph /  1.6km/h 1.0mph /  1.6km/h 93% 0.00in /  0mm 0 W/m2
03:12 23.7 °F /  -4.6 °C 22.0 °F /  -5.6 °C 30.33in /  1027hPa Calm     93% 0.00in /  0mm 0 W/m2
03:25 23.7 °F /  -4.6 °C 22.0 °F /  -5.6 °C 30.34in /  1027.3hPa WNW 2.0mph /  3.2km/h 3.0mph /  4.8km/h 93% 0.00in /  0mm 0 W/m2
03:32 23.6 °F /  -4.7 °C 21.9 °F /  -5.6 °C 30.34in /  1027.3hPa WNW 2.0mph /  3.2km/h 2.0mph /  3.2km/h 93% 0.00in /  0mm 0 W/m2
03:38 23.2 °F /  -4.9 °C 21.5 °F /  -5.8 °C 30.34in /  1027.3hPa WNW 3.0mph /  4.8km/h 4.0mph /  6.4km/h 93% 0.00in /  0mm 0 W/m2
03:44 23.0 °F /  -5 °C 21.3 °F /  -5.9 °C 30.34in /  1027.3hPa WNW 2.0mph /  3.2km/h 3.0mph /  4.8km/h 93% 0.00in /  0mm 0 W/m2
03:49 22.8 °F /  -5.1 °C 21.1 °F /  -6.1 °C 30.34in /  1027.3hPa WNW 2.0mph /  3.2km/h 3.0mph /  4.8km/h 93% 0.00in /  0mm 0 W/m2
03:58 22.4 °F /  -5.3 °C 20.4 °F /  -6.4 °C 30.34in /  1027.3hPa NW 3.0mph /  4.8km/h 3.0mph /  4.8km/h 92% 0.00in /  0mm 0 W/m2
04:05 22.2 °F /  -5.4 °C 20.2 °F /  -6.6 °C 30.34in /  1027.3hPa WNW 2.0mph /  3.2km/h 3.0mph /  4.8km/h 92% 0.00in /  0mm 0 W/m2
04:12 21.9 °F /  -5.6 °C 19.9 °F /  -6.7 °C 30.34in /  1027.3hPa WNW 2.0mph /  3.2km/h 3.0mph /  4.8km/h 92% 0.00in /  0mm 0 W/m2
04:18 21.7 °F /  -5.7 °C 19.7 °F /  -6.8 °C 30.34in /  1027.3hPa WNW 3.0mph /  4.8km/h 5.0mph /  8km/h 92% 0.00in /  0mm 0 W/m2
04:24 21.4 °F /  -5.9 °C 19.4 °F /  -7 °C 30.34in /  1027.3hPa WNW 3.0mph /  4.8km/h 5.0mph /  8km/h 92% 0.00in /  0mm 0 W/m2
04:29 21.2 °F /  -6 °C 19.2 °F /  -7.1 °C 30.34in /  1027.3hPa West 3.0mph /  4.8km/h 3.0mph /  4.8km/h 92% 0.00in /  0mm 0 W/m2
04:36 20.9 °F /  -6.2 °C 18.9 °F /  -7.3 °C 30.34in /  1027.3hPa West 2.0mph /  3.2km/h 4.0mph /  6.4km/h 92% 0.00in /  0mm 0 W/m2
04:42 20.4 °F /  -6.4 °C 18.4 °F /  -7.6 °C 30.34in /  1027.3hPa WNW 3.0mph /  4.8km/h 3.0mph /  4.8km/h 92% 0.00in /  0mm 0 W/m2
04:48 20.0 °F /  -6.7 °C 17.8 °F /  -7.9 °C 30.35in /  1027.7hPa WNW 3.0mph /  4.8km/h 3.0mph /  4.8km/h 91% 0.00in /  0mm 0 W/m2
04:53 19.7 °F /  -6.8 °C 17.5 °F /  -8.1 °C 30.35in /  1027.7hPa West 3.0mph /  4.8km/h 3.0mph /  4.8km/h 91% 0.00in /  0mm 0 W/m2
04:59 19.4 °F /  -7 °C 17.2 °F /  -8.2 °C 30.35in /  1027.7hPa WSW 3.0mph /  4.8km/h 3.0mph /  4.8km/h 91% 0.00in /  0mm 0 W/m2
05:08 19.0 °F /  -7.2 °C 16.8 °F /  -8.4 °C 30.35in /  1027.7hPa WNW 2.0mph /  3.2km/h 3.0mph /  4.8km/h 91% 0.00in /  0mm 0 W/m2
05:16 18.6 °F /  -7.4 °C 16.4 °F /  -8.7 °C 30.36in /  1028hPa WNW 3.0mph /  4.8km/h 4.0mph /  6.4km/h 91% 0.00in /  0mm 0 W/m2
05:22 18.4 °F /  -7.6 °C 16.2 °F /  -8.8 °C 30.36in /  1028hPa West 3.0mph /  4.8km/h 3.0mph /  4.8km/h 91% 0.00in /  0mm 0 W/m2
05:28 18.2 °F /  -7.7 °C 16.0 °F /  -8.9 °C 30.36in /  1028hPa WNW 2.0mph /  3.2km/h 4.0mph /  6.4km/h 91% 0.00in /  0mm 0 W/m2
05:33 18.1 °F /  -7.7 °C 15.7 °F /  -9.1 °C 30.36in /  1028hPa NW 2.0mph /  3.2km/h 3.0mph /  4.8km/h 90% 0.00in /  0mm 0 W/m2
05:46 17.9 °F /  -7.8 °C 15.5 °F /  -9.2 °C 30.37in /  1028.3hPa WNW 2.0mph /  3.2km/h 3.0mph /  4.8km/h 90% 0.00in /  0mm 0 W/m2
05:52 17.7 °F /  -7.9 °C 15.3 °F /  -9.3 °C 30.37in /  1028.3hPa West 2.0mph /  3.2km/h 4.0mph /  6.4km/h 90% 0.00in /  0mm 0 W/m2
05:58 17.5 °F /  -8.1 °C 15.1 °F /  -9.4 °C 30.38in /  1028.7hPa West 3.0mph /  4.8km/h 5.0mph /  8km/h 90% 0.00in /  0mm 0 W/m2
06:08 17.2 °F /  -8.2 °C 14.8 °F /  -9.6 °C 30.38in /  1028.7hPa WNW 3.0mph /  4.8km/h 4.0mph /  6.4km/h 90% 0.00in /  0mm 0 W/m2
06:14 17.1 °F /  -8.3 °C 14.7 °F /  -9.6 °C 30.38in /  1028.7hPa WSW 2.0mph /  3.2km/h 5.0mph /  8km/h 90% 0.00in /  0mm 0 W/m2
06:20 17.0 °F /  -8.3 °C 14.6 °F /  -9.7 °C 30.38in /  1028.7hPa West 2.0mph /  3.2km/h 2.0mph /  3.2km/h 90% 0.00in /  0mm 0 W/m2
06:25 16.9 °F /  -8.4 °C 14.5 °F /  -9.7 °C 30.38in /  1028.7hPa WSW 2.0mph /  3.2km/h 5.0mph /  8km/h 90% 0.00in /  0mm 0 W/m2
06:32 16.8 °F /  -8.4 °C 14.4 °F /  -9.8 °C 30.38in /  1028.7hPa West 2.0mph /  3.2km/h 2.0mph /  3.2km/h 90% 0.00in /  0mm 0 W/m2
06:46 16.6 °F /  -8.6 °C 14.2 °F /  -9.9 °C 30.38in /  1028.7hPa WSW 2.0mph /  3.2km/h 3.0mph /  4.8km/h 90% 0.00in /  0mm 0 W/m2
06:52 16.4 °F /  -8.7 °C 14.0 °F /  -10 °C 30.38in /  1028.7hPa WSW 2.0mph /  3.2km/h 2.0mph /  3.2km/h 90% 0.00in /  0mm 0 W/m2
06:58 16.4 °F /  -8.7 °C 14.0 °F /  -10 °C 30.38in /  1028.7hPa West 2.0mph /  3.2km/h 5.0mph /  8km/h 90% 0.00in /  0mm 0 W/m2
07:04 16.3 °F /  -8.7 °C 13.6 °F /  -10.2 °C 30.38in /  1028.7hPa WSW 2.0mph /  3.2km/h 2.0mph /  3.2km/h 89% 0.00in /  0mm 0 W/m2
07:10 16.2 °F /  -8.8 °C 13.8 °F /  -10.1 °C 30.38in /  1028.7hPa WSW 2.0mph /  3.2km/h 2.0mph /  3.2km/h 90% 0.00in /  0mm 0 W/m2
07:16 16.1 °F /  -8.8 °C 13.4 °F /  -10.3 °C 30.38in /  1028.7hPa WNW 2.0mph /  3.2km/h 3.0mph /  4.8km/h 89% 0.00in /  0mm 0 W/m2
07:22 16.0 °F /  -8.9 °C 13.3 °F /  -10.4 °C 30.38in /  1028.7hPa NW 2.0mph /  3.2km/h 6.0mph /  9.7km/h 89% 0.00in /  0mm 0 W/m2
07:28 15.9 °F /  -8.9 °C 13.2 °F /  -10.4 °C 30.38in /  1028.7hPa West 2.0mph /  3.2km/h 6.0mph /  9.7km/h 89% 0.00in /  0mm 0 W/m2
07:34 15.9 °F /  -8.9 °C 13.2 °F /  -10.4 °C 30.38in /  1028.7hPa WNW 2.0mph /  3.2km/h 2.0mph /  3.2km/h 89% 0.00in /  0mm 0 W/m2
07:40 15.9 °F /  -8.9 °C 13.2 °F /  -10.4 °C 30.38in /  1028.7hPa WNW 2.0mph /  3.2km/h 2.0mph /  3.2km/h 89% 0.00in /  0mm 0 W/m2
07:50 15.8 °F /  -9 °C 13.1 °F /  -10.5 °C 30.38in /  1028.7hPa WNW 2.0mph /  3.2km/h 2.0mph /  3.2km/h 89% 0.00in /  0mm 0 W/m2
07:56 15.8 °F /  -9 °C 13.4 °F /  -10.3 °C 30.38in /  1028.7hPa WSW 2.0mph /  3.2km/h 2.0mph /  3.2km/h 90% 0.00in /  0mm 0 W/m2
08:02 15.7 °F /  -9.1 °C 13.3 °F /  -10.4 °C 30.38in /  1028.7hPa West 2.0mph /  3.2km/h 2.0mph /  3.2km/h 90% 0.00in /  0mm 5 W/m2
08:08 15.7 °F /  -9.1 °C 13.3 °F /  -10.4 °C 30.38in /  1028.7hPa WSW 2.0mph /  3.2km/h 3.0mph /  4.8km/h 90% 0.00in /  0mm 7 W/m2
08:16 15.6 °F /  -9.1 °C 13.2 °F /  -10.4 °C 30.38in /  1028.7hPa WSW 1.0mph /  1.6km/h 3.0mph /  4.8km/h 90% 0.00in /  0mm 9 W/m2
08:22 15.6 °F /  -9.1 °C 13.2 °F /  -10.4 °C 30.38in /  1028.7hPa SW 2.0mph /  3.2km/h 2.0mph /  3.2km/h 90% 0.00in /  0mm 11 W/m2
08:29 15.6 °F /  -9.1 °C 13.2 °F /  -10.4 °C 30.39in /  1029hPa WSW 2.0mph /  3.2km/h 2.0mph /  3.2km/h 90% 0.00in /  0mm 14 W/m2
08:36 15.5 °F /  -9.2 °C 12.8 °F /  -10.7 °C 30.39in /  1029hPa WSW 3.0mph /  4.8km/h 6.0mph /  9.7km/h 89% 0.00in /  0mm 18 W/m2
08:42 15.5 °F /  -9.2 °C 12.8 °F /  -10.7 °C 30.39in /  1029hPa SW 3.0mph /  4.8km/h 3.0mph /  4.8km/h 89% 0.00in /  0mm 19 W/m2
08:48 15.5 °F /  -9.2 °C 12.8 °F /  -10.7 °C 30.39in /  1029hPa WSW 2.0mph /  3.2km/h 3.0mph /  4.8km/h 89% 0.00in /  0mm 21 W/m2
09:02 15.6 °F /  -9.1 °C 12.9 °F /  -10.6 °C 30.38in /  1028.7hPa WSW 1.0mph /  1.6km/h 2.0mph /  3.2km/h 89% 0.00in /  0mm 30 W/m2
09:08 15.7 °F /  -9.1 °C 13.3 °F /  -10.4 °C 30.38in /  1028.7hPa WSW 2.0mph /  3.2km/h 2.0mph /  3.2km/h 90% 0.00in /  0mm 32 W/m2
09:13 15.7 °F /  -9.1 °C 13.0 °F /  -10.6 °C 30.38in /  1028.7hPa WSW 2.0mph /  3.2km/h 6.0mph /  9.7km/h 89% 0.00in /  0mm 37 W/m2
09:20 15.7 °F /  -9.1 °C 13.0 °F /  -10.6 °C 30.38in /  1028.7hPa WSW 2.0mph /  3.2km/h 3.0mph /  4.8km/h 89% 0.00in /  0mm 49 W/m2
09:25 15.8 °F /  -9 °C 13.1 °F /  -10.5 °C 30.38in /  1028.7hPa WSW 1.0mph /  1.6km/h 3.0mph /  4.8km/h 89% 0.00in /  0mm 62 W/m2
09:32 15.7 °F /  -9.1 °C 13.0 °F /  -10.6 °C 30.38in /  1028.7hPa SW 2.0mph /  3.2km/h 3.0mph /  4.8km/h 89% 0.00in /  0mm 63 W/m2
09:38 15.8 °F /  -9 °C 13.1 °F /  -10.5 °C 30.38in /  1028.7hPa WNW 3.0mph /  4.8km/h 3.0mph /  4.8km/h 89% 0.00in /  0mm 62 W/m2
09:44 15.8 °F /  -9 °C 13.1 °F /  -10.5 °C 30.38in /  1028.7hPa SW 2.0mph /  3.2km/h 4.0mph /  6.4km/h 89% 0.00in /  0mm 56 W/m2
09:50 15.8 °F /  -9 °C 13.1 °F /  -10.5 °C 30.38in /  1028.7hPa WSW 2.0mph /  3.2km/h 4.0mph /  6.4km/h 89% 0.00in /  0mm 62 W/m2
10:02 15.9 °F /  -8.9 °C 13.2 °F /  -10.4 °C 30.38in /  1028.7hPa West 2.0mph /  3.2km/h 3.0mph /  4.8km/h 89% 0.00in /  0mm 67 W/m2
10:08 15.9 °F /  -8.9 °C 13.2 °F /  -10.4 °C 30.39in /  1029hPa WNW 2.0mph /  3.2km/h 5.0mph /  8km/h 89% 0.00in /  0mm 65 W/m2
10:14 15.9 °F /  -8.9 °C 13.2 °F /  -10.4 °C 30.39in /  1029hPa WSW 2.0mph /  3.2km/h 3.0mph /  4.8km/h 89% 0.00in /  0mm 60 W/m2
10:20 15.9 °F /  -8.9 °C 13.2 °F /  -10.4 °C 30.39in /  1029hPa West 2.0mph /  3.2km/h 2.0mph /  3.2km/h 89% 0.00in /  0mm 69 W/m2
10:28 15.9 °F /  -8.9 °C 13.0 °F /  -10.6 °C 30.39in /  1029hPa West 3.0mph /  4.8km/h 5.0mph /  8km/h 88% 0.00in /  0mm 83 W/m2
10:33 15.8 °F /  -9 °C 12.9 °F /  -10.6 °C 30.39in /  1029hPa WSW 3.0mph /  4.8km/h 6.0mph /  9.7km/h 88% 0.00in /  0mm 90 W/m2
10:45 16.3 °F /  -8.7 °C 13.4 °F /  -10.3 °C 30.39in /  1029hPa West 2.0mph /  3.2km/h 5.0mph /  8km/h 88% 0.00in /  0mm 88 W/m2
10:52 16.3 °F /  -8.7 °C 13.4 °F /  -10.3 °C 30.38in /  1028.7hPa WNW 3.0mph /  4.8km/h 3.0mph /  4.8km/h 88% 0.00in /  0mm 84 W/m2
10:58 16.3 °F /  -8.7 °C 13.4 °F /  -10.3 °C 30.38in /  1028.7hPa West 3.0mph /  4.8km/h 3.0mph /  4.8km/h 88% 0.00in /  0mm 81 W/m2
11:04 16.4 °F /  -8.7 °C 13.5 °F /  -10.3 °C 30.38in /  1028.7hPa SW 2.0mph /  3.2km/h 4.0mph /  6.4km/h 88% 0.00in /  0mm 81 W/m2
11:09 16.3 °F /  -8.7 °C 13.1 °F /  -10.5 °C 30.38in /  1028.7hPa WSW 3.0mph /  4.8km/h 3.0mph /  4.8km/h 87% 0.00in /  0mm 79 W/m2
11:15 16.2 °F /  -8.8 °C 13.0 °F /  -10.6 °C 30.38in /  1028.7hPa WSW 4.0mph /  6.4km/h 4.0mph /  6.4km/h 87% 0.00in /  0mm 83 W/m2
11:22 16.3 °F /  -8.7 °C 13.1 °F /  -10.5 °C 30.38in /  1028.7hPa WSW 2.0mph /  3.2km/h 3.0mph /  4.8km/h 87% 0.00in /  0mm 84 W/m2
11:28 16.5 °F /  -8.6 °C 13.3 °F /  -10.4 °C 30.37in /  1028.3hPa WNW 2.0mph /  3.2km/h 5.0mph /  8km/h 87% 0.00in /  0mm 86 W/m2
11:34 16.5 °F /  -8.6 °C 13.3 °F /  -10.4 °C 30.36in /  1028hPa West 3.0mph /  4.8km/h 6.0mph /  9.7km/h 87% 0.00in /  0mm 91 W/m2
11:39 16.5 °F /  -8.6 °C 13.3 °F /  -10.4 °C 30.36in /  1028hPa West 3.0mph /  4.8km/h 3.0mph /  4.8km/h 87% 0.00in /  0mm 109 W/m2
11:46 16.7 °F /  -8.5 °C 13.5 °F /  -10.3 °C 30.36in /  1028hPa WSW 3.0mph /  4.8km/h 3.0mph /  4.8km/h 87% 0.00in /  0mm 125 W/m2
11:52 17.0 °F /  -8.3 °C 13.8 °F /  -10.1 °C 30.35in /  1027.7hPa WSW 2.0mph /  3.2km/h 2.0mph /  3.2km/h 87% 0.00in /  0mm 151 W/m2
12:02 17.2 °F /  -8.2 °C 14.0 °F /  -10 °C 30.35in /  1027.7hPa WSW 3.0mph /  4.8km/h 4.0mph /  6.4km/h 87% 0.00in /  0mm 165 W/m2
12:08 17.1 °F /  -8.3 °C 13.9 °F /  -10.1 °C 30.34in /  1027.3hPa West 3.0mph /  4.8km/h 4.0mph /  6.4km/h 87% 0.00in /  0mm 176 W/m2
12:14 17.1 °F /  -8.3 °C 13.6 °F /  -10.2 °C 30.34in /  1027.3hPa West 3.0mph /  4.8km/h 5.0mph /  8km/h 86% 0.00in /  0mm 169 W/m2
12:19 17.0 °F /  -8.3 °C 13.5 °F /  -10.3 °C 30.33in /  1027hPa West 4.0mph /  6.4km/h 4.0mph /  6.4km/h 86% 0.00in /  0mm 255 W/m2
12:32 17.1 °F /  -8.3 °C 13.6 °F /  -10.2 °C 30.33in /  1027hPa West 4.0mph /  6.4km/h 4.0mph /  6.4km/h 86% 0.00in /  0mm 174 W/m2
12:40 17.4 °F /  -8.1 °C 13.9 °F /  -10.1 °C 30.33in /  1027hPa WNW 3.0mph /  4.8km/h 3.0mph /  4.8km/h 86% 0.00in /  0mm 188 W/m2
12:52 17.9 °F /  -7.8 °C 14.4 °F /  -9.8 °C 30.32in /  1026.6hPa SW 3.0mph /  4.8km/h 3.0mph /  4.8km/h 86% 0.00in /  0mm 612 W/m2
12:58 18.6 °F /  -7.4 °C 15.4 °F /  -9.2 °C 30.32in /  1026.6hPa WSW 3.0mph /  4.8km/h 3.0mph /  4.8km/h 87% 0.00in /  0mm 605 W/m2
13:04 18.4 °F /  -7.6 °C 14.9 °F /  -9.5 °C 30.32in /  1026.6hPa West 3.0mph /  4.8km/h 6.0mph /  9.7km/h 86% 0.00in /  0mm 566 W/m2
13:09 18.2 °F /  -7.7 °C 14.7 °F /  -9.6 °C 30.32in /  1026.6hPa WSW 3.0mph /  4.8km/h 3.0mph /  4.8km/h 86% 0.00in /  0mm 417 W/m2
13:18 18.2 °F /  -7.7 °C 14.7 °F /  -9.6 °C 30.32in /  1026.6hPa WSW 3.0mph /  4.8km/h 6.0mph /  9.7km/h 86% 0.00in /  0mm 492 W/m2
13:24 18.4 °F /  -7.6 °C 14.9 °F /  -9.5 °C 30.31in /  1026.3hPa West 3.0mph /  4.8km/h 4.0mph /  6.4km/h 86% 0.00in /  0mm 642 W/m2
13:30 18.5 °F /  -7.5 °C 15.0 °F /  -9.4 °C 30.31in /  1026.3hPa West 4.0mph /  6.4km/h 4.0mph /  6.4km/h 86% 0.00in /  0mm 510 W/m2
13:40 18.3 °F /  -7.6 °C 14.8 °F /  -9.6 °C 30.31in /  1026.3hPa West 3.0mph /  4.8km/h 3.0mph /  4.8km/h 86% 0.00in /  0mm 207 W/m2
13:48 18.1 °F /  -7.7 °C 14.6 °F /  -9.7 °C 30.30in /  1026hPa WSW 3.0mph /  4.8km/h 3.0mph /  4.8km/h 86% 0.00in /  0mm 185 W/m2
13:54 18.6 °F /  -7.4 °C 15.1 °F /  -9.4 °C 30.30in /  1026hPa SSW 2.0mph /  3.2km/h 6.0mph /  9.7km/h 86% 0.00in /  0mm 487 W/m2
14:00 19.1 °F /  -7.2 °C 15.9 °F /  -8.9 °C 30.30in /  1026hPa West 2.0mph /  3.2km/h 2.0mph /  3.2km/h 87% 0.00in /  0mm 513 W/m2
14:06 19.3 °F /  -7.1 °C 15.8 °F /  -9 °C 30.30in /  1026hPa WSW 3.0mph /  4.8km/h 4.0mph /  6.4km/h 86% 0.00in /  0mm 510 W/m2
14:13 19.3 °F /  -7.1 °C 15.8 °F /  -9 °C 30.30in /  1026hPa South 2.0mph /  3.2km/h 5.0mph /  8km/h 86% 0.00in /  0mm 550 W/m2
14:20 19.6 °F /  -6.9 °C 16.4 °F /  -8.7 °C 30.30in /  1026hPa SSW 3.0mph /  4.8km/h 3.0mph /  4.8km/h 87% 0.00in /  0mm 494 W/m2
14:26 19.5 °F /  -6.9 °C 16.0 °F /  -8.9 °C 30.29in /  1025.6hPa SW 4.0mph /  6.4km/h 8.0mph /  12.9km/h 86% 0.00in /  0mm 394 W/m2
14:32 19.2 °F /  -7.1 °C 15.7 °F /  -9.1 °C 30.29in /  1025.6hPa West 4.0mph /  6.4km/h 4.0mph /  6.4km/h 86% 0.00in /  0mm 374 W/m2
14:38 19.1 °F /  -7.2 °C 15.6 °F /  -9.1 °C 30.29in /  1025.6hPa SW 4.0mph /  6.4km/h 4.0mph /  6.4km/h 86% 0.00in /  0mm 352 W/m2
14:44 19.2 °F /  -7.1 °C 15.7 °F /  -9.1 °C 30.28in /  1025.3hPa WSW 3.0mph /  4.8km/h 6.0mph /  9.7km/h 86% 0.00in /  0mm 336 W/m2
14:50 19.6 °F /  -6.9 °C 16.1 °F /  -8.8 °C 30.28in /  1025.3hPa West 2.0mph /  3.2km/h 2.0mph /  3.2km/h 86% 0.00in /  0mm 264 W/m2
14:55 19.9 °F /  -6.7 °C 16.4 °F /  -8.7 °C 30.28in /  1025.3hPa West 2.0mph /  3.2km/h 4.0mph /  6.4km/h 86% 0.00in /  0mm 297 W/m2
15:02 19.6 °F /  -6.9 °C 15.8 °F /  -9 °C 30.28in /  1025.3hPa WSW 3.0mph /  4.8km/h 4.0mph /  6.4km/h 85% 0.00in /  0mm 278 W/m2
15:09 19.5 °F /  -6.9 °C 15.7 °F /  -9.1 °C 30.28in /  1025.3hPa SW 3.0mph /  4.8km/h 3.0mph /  4.8km/h 85% 0.00in /  0mm 248 W/m2
15:16 19.3 °F /  -7.1 °C 15.5 °F /  -9.2 °C 30.28in /  1025.3hPa WSW 4.0mph /  6.4km/h 5.0mph /  8km/h 85% 0.00in /  0mm 149 W/m2
15:22 19.0 °F /  -7.2 °C 15.2 °F /  -9.3 °C 30.28in /  1025.3hPa West 4.0mph /  6.4km/h 6.0mph /  9.7km/h 85% 0.00in /  0mm 158 W/m2
15:30 19.1 °F /  -7.2 °C 15.3 °F /  -9.3 °C 30.28in /  1025.3hPa WSW 3.0mph /  4.8km/h 4.0mph /  6.4km/h 85% 0.00in /  0mm 236 W/m2
15:40 19.2 °F /  -7.1 °C 15.4 °F /  -9.2 °C 30.28in /  1025.3hPa SSW 4.0mph /  6.4km/h 4.0mph /  6.4km/h 85% 0.00in /  0mm 193 W/m2
15:46 19.3 °F /  -7.1 °C 15.5 °F /  -9.2 °C 30.27in /  1024.9hPa WSW 3.0mph /  4.8km/h 4.0mph /  6.4km/h 85% 0.00in /  0mm 167 W/m2
15:54 19.3 °F /  -7.1 °C 15.5 °F /  -9.2 °C 30.27in /  1024.9hPa SSW 3.0mph /  4.8km/h 3.0mph /  4.8km/h 85% 0.00in /  0mm 149 W/m2
16:04 19.1 °F /  -7.2 °C 15.3 °F /  -9.3 °C 30.27in /  1024.9hPa WSW 3.0mph /  4.8km/h 5.0mph /  8km/h 85% 0.00in /  0mm 109 W/m2
16:16 19.0 °F /  -7.2 °C 15.2 °F /  -9.3 °C 30.26in /  1024.6hPa WSW 2.0mph /  3.2km/h 3.0mph /  4.8km/h 85% 0.00in /  0mm 32 W/m2
16:22 18.6 °F /  -7.4 °C 14.8 °F /  -9.6 °C 30.27in /  1024.9hPa WSW 2.0mph /  3.2km/h 2.0mph /  3.2km/h 85% 0.00in /  0mm 26 W/m2
16:25 18.5 °F /  -7.5 °C 14.7 °F /  -9.6 °C 30.26in /  1024.6hPa WSW 2.0mph /  3.2km/h 5.0mph /  8km/h 85% 0.00in /  0mm 25 W/m2
16:28 18.4 °F /  -7.6 °C 14.6 °F /  -9.7 °C 30.26in /  1024.6hPa WSW 2.0mph /  3.2km/h 5.0mph /  8km/h 85% 0.00in /  0mm 23 W/m2
16:34 18.2 °F /  -7.7 °C 14.4 °F /  -9.8 °C 30.26in /  1024.6hPa WSW 1.0mph /  1.6km/h 4.0mph /  6.4km/h 85% 0.00in /  0mm 19 W/m2
16:39 18.1 °F /  -7.7 °C 14.4 °F /  -9.8 °C 30.26in /  1024.6hPa WSW 1.0mph /  1.6km/h 1.0mph /  1.6km/h 85% 0.00in /  0mm 16 W/m2
16:46 17.9 °F /  -7.8 °C 14.2 °F /  -9.9 °C 30.26in /  1024.6hPa WSW 1.0mph /  1.6km/h 3.0mph /  4.8km/h 85% 0.00in /  0mm 14 W/m2
16:52 17.7 °F /  -7.9 °C 14.0 °F /  -10 °C 30.26in /  1024.6hPa WSW 1.0mph /  1.6km/h 1.0mph /  1.6km/h 85% 0.00in /  0mm 11 W/m2
16:56 17.6 °F /  -8 °C 13.9 °F /  -10.1 °C 30.25in /  1024.3hPa SW 1.0mph /  1.6km/h 5.0mph /  8km/h 85% 0.00in /  0mm 7 W/m2
16:58 17.5 °F /  -8.1 °C 13.8 °F /  -10.1 °C 30.26in /  1024.6hPa West 1.0mph /  1.6km/h 5.0mph /  8km/h 85% 0.00in /  0mm 5 W/m2
17:02 17.5 °F /  -8.1 °C 13.8 °F /  -10.1 °C 30.26in /  1024.6hPa SW 2.0mph /  3.2km/h 4.0mph /  6.4km/h 85% 0.00in /  0mm 0 W/m2
17:06 17.4 °F /  -8.1 °C 13.7 °F /  -10.2 °C 30.25in /  1024.3hPa WSW 2.0mph /  3.2km/h 4.0mph /  6.4km/h 85% 0.00in /  0mm 0 W/m2
17:12 17.4 °F /  -8.1 °C 13.7 °F /  -10.2 °C 30.25in /  1024.3hPa WSW 3.0mph /  4.8km/h 4.0mph /  6.4km/h 85% 0.00in /  0mm 0 W/m2
17:18 17.3 °F /  -8.2 °C 13.6 °F /  -10.2 °C 30.25in /  1024.3hPa West 3.0mph /  4.8km/h 5.0mph /  8km/h 85% 0.00in /  0mm 0 W/m2
17:26 17.1 °F /  -8.3 °C 13.4 °F /  -10.3 °C 30.25in /  1024.3hPa WSW 3.0mph /  4.8km/h 4.0mph /  6.4km/h 85% 0.00in /  0mm 0 W/m2
17:32 17.0 °F /  -8.3 °C 13.3 °F /  -10.4 °C 30.25in /  1024.3hPa WSW 2.0mph /  3.2km/h 2.0mph /  3.2km/h 85% 0.00in /  0mm 0 W/m2
17:38 16.7 °F /  -8.5 °C 13.0 °F /  -10.6 °C 30.25in /  1024.3hPa SW 1.0mph /  1.6km/h 3.0mph /  4.8km/h 85% 0.00in /  0mm 0 W/m2
17:43 16.5 °F /  -8.6 °C 12.8 °F /  -10.7 °C 30.25in /  1024.3hPa SW 2.0mph /  3.2km/h 9.0mph /  14.5km/h 85% 0.00in /  0mm 0 W/m2
17:49 16.3 °F /  -8.7 °C 12.6 °F /  -10.8 °C 30.25in /  1024.3hPa West 3.0mph /  4.8km/h 3.0mph /  4.8km/h 85% 0.00in /  0mm 0 W/m2
17:56 16.2 °F /  -8.8 °C 12.5 °F /  -10.8 °C 30.26in /  1024.6hPa WSW 3.0mph /  4.8km/h 4.0mph /  6.4km/h 85% 0.00in /  0mm 0 W/m2
18:00 16.1 °F /  -8.8 °C 12.4 °F /  -10.9 °C 30.26in /  1024.6hPa West 2.0mph /  3.2km/h 3.0mph /  4.8km/h 85% 0.00in /  0mm 0 W/m2
18:06 15.9 °F /  -8.9 °C 11.9 °F /  -11.2 °C 30.26in /  1024.6hPa WSW 2.0mph /  3.2km/h 3.0mph /  4.8km/h 84% 0.00in /  0mm 0 W/m2
18:12 15.7 °F /  -9.1 °C 11.7 °F /  -11.3 °C 30.25in /  1024.3hPa WSW 2.0mph /  3.2km/h 2.0mph /  3.2km/h 84% 0.00in /  0mm 0 W/m2
18:18 15.6 °F /  -9.1 °C 11.9 °F /  -11.2 °C 30.25in /  1024.3hPa West 2.0mph /  3.2km/h 3.0mph /  4.8km/h 85% 0.00in /  0mm 0 W/m2
18:23 15.4 °F /  -9.2 °C 11.7 °F /  -11.3 °C 30.25in /  1024.3hPa WSW 2.0mph /  3.2km/h 3.0mph /  4.8km/h 85% 0.00in /  0mm 0 W/m2
18:30 15.3 °F /  -9.3 °C 11.3 °F /  -11.5 °C 30.25in /  1024.3hPa WSW 1.0mph /  1.6km/h 1.0mph /  1.6km/h 84% 0.00in /  0mm 0 W/m2
18:36 15.1 °F /  -9.4 °C 11.4 °F /  -11.4 °C 30.25in /  1024.3hPa WSW 2.0mph /  3.2km/h 3.0mph /  4.8km/h 85% 0.00in /  0mm 0 W/m2
18:42 15.1 °F /  -9.4 °C 11.4 °F /  -11.4 °C 30.25in /  1024.3hPa SW 2.0mph /  3.2km/h 5.0mph /  8km/h 85% 0.00in /  0mm 0 W/m2
18:48 15.0 °F /  -9.4 °C 11.3 °F /  -11.5 °C 30.24in /  1023.9hPa SW 2.0mph /  3.2km/h 5.0mph /  8km/h 85% 0.00in /  0mm 0 W/m2
18:54 14.9 °F /  -9.5 °C 11.2 °F /  -11.6 °C 30.24in /  1023.9hPa SW 2.0mph /  3.2km/h 6.0mph /  9.7km/h 85% 0.00in /  0mm 0 W/m2
18:59 14.7 °F /  -9.6 °C 11.0 °F /  -11.7 °C 30.24in /  1023.9hPa SW 1.0mph /  1.6km/h 1.0mph /  1.6km/h 85% 0.00in /  0mm 0 W/m2
19:05 14.5 °F /  -9.7 °C 10.8 °F /  -11.8 °C 30.24in /  1023.9hPa SW 1.0mph /  1.6km/h 3.0mph /  4.8km/h 85% 0.00in /  0mm 0 W/m2
19:12 14.5 °F /  -9.7 °C 10.8 °F /  -11.8 °C 30.24in /  1023.9hPa WSW 1.0mph /  1.6km/h 2.0mph /  3.2km/h 85% 0.00in /  0mm 0 W/m2
19:18 14.3 °F /  -9.8 °C 10.6 °F /  -11.9 °C 30.24in /  1023.9hPa WSW 1.0mph /  1.6km/h 2.0mph /  3.2km/h 85% 0.00in /  0mm 0 W/m2
19:24 14.2 °F /  -9.9 °C 10.5 °F /  -11.9 °C 30.23in /  1023.6hPa Calm   2.0mph /  3.2km/h 85% 0.00in /  0mm 0 W/m2
19:30 13.9 °F /  -10.1 °C 10.2 °F /  -12.1 °C 30.22in /  1023.2hPa Calm     85% 0.00in /  0mm 0 W/m2
19:35 13.6 °F /  -10.2 °C 9.9 °F /  -12.3 °C 30.22in /  1023.2hPa Calm   2.0mph /  3.2km/h 85% 0.00in /  0mm 0 W/m2
19:42 13.3 °F /  -10.4 °C 9.6 °F /  -12.4 °C 30.22in /  1023.2hPa Calm     85% 0.00in /  0mm 0 W/m2
19:48 13.1 °F /  -10.5 °C 9.4 °F /  -12.6 °C 30.22in /  1023.2hPa Calm     85% 0.00in /  0mm 0 W/m2
19:54 13.0 °F /  -10.6 °C 9.6 °F /  -12.4 °C 30.22in /  1023.2hPa Calm     86% 0.00in /  0mm 0 W/m2
20:00 12.7 °F /  -10.7 °C 9.3 °F /  -12.6 °C 30.22in /  1023.2hPa Calm     86% 0.00in /  0mm 0 W/m2
20:05 12.3 °F /  -10.9 °C 8.9 °F /  -12.8 °C 30.21in /  1022.9hPa Calm     86% 0.00in /  0mm 0 W/m2
20:12 11.8 °F /  -11.2 °C 8.4 °F /  -13.1 °C 30.21in /  1022.9hPa Calm     86% 0.00in /  0mm 0 W/m2
20:18 11.3 °F /  -11.5 °C 7.9 °F /  -13.4 °C 30.21in /  1022.9hPa Calm     86% 0.00in /  0mm 0 W/m2
20:24 10.8 °F /  -11.8 °C 7.4 °F /  -13.7 °C 30.21in /  1022.9hPa Calm     86% 0.00in /  0mm 0 W/m2
20:30 10.3 °F /  -12.1 °C 6.9 °F /  -13.9 °C 30.20in /  1022.6hPa Calm     86% 0.00in /  0mm 0 W/m2
20:35 10.0 °F /  -12.2 °C 6.6 °F /  -14.1 °C 30.20in /  1022.6hPa Calm     86% 0.00in /  0mm 0 W/m2
20:42 9.7 °F /  -12.4 °C 6.4 °F /  -14.2 °C 30.19in /  1022.2hPa Calm     86% 0.00in /  0mm 0 W/m2
20:48 9.3 °F /  -12.6 °C 6.0 °F /  -14.4 °C 30.19in /  1022.2hPa Calm     86% 0.00in /  0mm 0 W/m2
20:54 8.9 °F /  -12.8 °C 5.6 °F /  -14.7 °C 30.19in /  1022.2hPa Calm     86% 0.00in /  0mm 0 W/m2
20:59 8.5 °F /  -13.1 °C 5.2 °F /  -14.9 °C 30.19in /  1022.2hPa Calm     86% 0.00in /  0mm 0 W/m2
21:05 8.0 °F /  -13.3 °C 4.7 °F /  -15.2 °C 30.18in /  1021.9hPa Calm     86% 0.00in /  0mm 0 W/m2
21:12 7.5 °F /  -13.6 °C 4.2 °F /  -15.4 °C 30.18in /  1021.9hPa Calm     86% 0.00in /  0mm 0 W/m2
21:18 7.1 °F /  -13.8 °C 3.8 °F /  -15.7 °C 30.18in /  1021.9hPa Calm     86% 0.00in /  0mm 0 W/m2
21:24 6.7 °F /  -14.1 °C 3.4 °F /  -15.9 °C 30.18in /  1021.9hPa Calm     86% 0.00in /  0mm 0 W/m2
21:30 6.3 °F /  -14.3 °C 3.0 °F /  -16.1 °C 30.17in /  1021.6hPa Calm     86% 0.00in /  0mm 0 W/m2
21:35 5.9 °F /  -14.5 °C 2.6 °F /  -16.3 °C 30.17in /  1021.6hPa Calm     86% 0.00in /  0mm 0 W/m2
21:42 5.6 °F /  -14.7 °C 2.3 °F /  -16.5 °C 30.17in /  1021.6hPa Calm     86% 0.00in /  0mm 0 W/m2
21:48 5.5 °F /  -14.7 °C 2.5 °F /  -16.4 °C 30.17in /  1021.6hPa Calm     87% 0.00in /  0mm 0 W/m2
21:54 5.3 °F /  -14.8 °C 2.0 °F /  -16.7 °C 30.17in /  1021.6hPa Calm     86% 0.00in /  0mm 0 W/m2
22:00 5.2 °F /  -14.9 °C 2.2 °F /  -16.6 °C 30.16in /  1021.2hPa Calm     87% 0.00in /  0mm 0 W/m2
22:06 5.0 °F /  -15 °C 2.0 °F /  -16.7 °C 30.16in /  1021.2hPa Calm     87% 0.00in /  0mm 0 W/m2
22:12 4.7 °F /  -15.2 °C 1.4 °F /  -17 °C 30.16in /  1021.2hPa Calm     86% 0.00in /  0mm 0 W/m2
22:18 4.5 °F /  -15.3 °C 1.2 °F /  -17.1 °C 30.16in /  1021.2hPa Calm     86% 0.00in /  0mm 0 W/m2
22:23 4.3 °F /  -15.4 °C 1.0 °F /  -17.2 °C 30.15in /  1020.9hPa Calm     86% 0.00in /  0mm 0 W/m2
22:30 4.2 °F /  -15.4 °C 0.9 °F /  -17.3 °C 30.15in /  1020.9hPa Calm     86% 0.00in /  0mm 0 W/m2
22:36 3.9 °F /  -15.6 °C 0.6 °F /  -17.4 °C 30.15in /  1020.9hPa Calm     86% 0.00in /  0mm 0 W/m2
22:42 3.8 °F /  -15.7 °C 0.5 °F /  -17.5 °C 30.15in /  1020.9hPa Calm     86% 0.00in /  0mm 0 W/m2
22:48 3.6 °F /  -15.8 °C 0.4 °F /  -17.6 °C 30.15in /  1020.9hPa Calm     86% 0.00in /  0mm 0 W/m2
22:53 3.5 °F /  -15.8 °C 0.3 °F /  -17.6 °C 30.15in /  1020.9hPa Calm     86% 0.00in /  0mm 0 W/m2
23:00 3.5 °F /  -15.8 °C 0.3 °F /  -17.6 °C 30.14in /  1020.5hPa Calm     86% 0.00in /  0mm 0 W/m2
23:06 3.4 °F /  -15.9 °C 0.2 °F /  -17.7 °C 30.14in /  1020.5hPa Calm     86% 0.00in /  0mm 0 W/m2
23:12 3.2 °F /  -16 °C 0.0 °F /  -17.8 °C 30.14in /  1020.5hPa Calm     86% 0.00in /  0mm 0 W/m2
23:18 3.0 °F /  -16.1 °C -0.2 °F /  -17.9 °C 30.14in /  1020.5hPa Calm     86% 0.00in /  0mm 0 W/m2
23:24 2.8 °F /  -16.2 °C -0.4 °F /  -18 °C 30.14in /  1020.5hPa Calm     86% 0.00in /  0mm 0 W/m2
23:29 2.5 °F /  -16.4 °C -0.7 °F /  -18.2 °C 30.14in /  1020.5hPa Calm     86% 0.00in /  0mm 0 W/m2
23:35 2.2 °F /  -16.6 °C -1.0 °F /  -18.3 °C 30.14in /  1020.5hPa Calm     86% 0.00in /  0mm 0 W/m2
23:42 2.0 °F /  -16.7 °C -1.2 °F /  -18.4 °C 30.13in /  1020.2hPa Calm     86% 0.00in /  0mm 0 W/m2
23:48 1.9 °F /  -16.7 °C -1.3 °F /  -18.5 °C 30.13in /  1020.2hPa Calm     86% 0.00in /  0mm 0 W/m2
23:54 1.7 °F /  -16.8 °C -1.5 °F /  -18.6 °C 30.13in /  1020.2hPa Calm     86% 0.00in /  0mm 0 W/m2
23:59 1.6 °F /  -16.9 °C -1.6 °F /  -18.7 °C 30.13in /  1020.2hPa Calm     86% 0.00in /  0mm 0 W/m2
Country Meadow, Clay, NY, USA
Compliments of Weather Underground - 2 mb